createdAt,value
2019-05-14T00:01:35.221Z,7.20
2019-05-14T00:04:06.666Z,7.20
2019-05-14T00:06:37.872Z,7.20
2019-05-14T00:09:08.991Z,7.20
2019-05-14T00:11:42.045Z,7.20
2019-05-14T00:14:13.007Z,7.20
2019-05-14T00:16:44.147Z,7.10
2019-05-14T00:19:15.301Z,7.10
2019-05-14T00:21:46.450Z,7.10
2019-05-14T00:24:17.595Z,7.10
2019-05-14T00:26:48.840Z,7.10
2019-05-14T00:29:22.025Z,7.10
2019-05-14T00:31:52.930Z,7.10
2019-05-14T00:34:24.125Z,7.20
2019-05-14T00:36:55.273Z,7.20
2019-05-14T00:39:26.389Z,7.20
2019-05-14T00:41:57.570Z,7.30
2019-05-14T00:44:28.726Z,7.40
2019-05-14T00:47:02.212Z,7.60
2019-05-14T00:49:34.532Z,7.70
2019-05-14T00:52:05.672Z,7.70
2019-05-14T00:54:36.806Z,7.70
2019-05-14T00:57:07.941Z,7.60
2019-05-14T00:59:41.429Z,7.60
2019-05-14T01:02:11.921Z,7.60
2019-05-14T01:04:43.082Z,7.70
2019-05-14T01:07:14.168Z,7.70
2019-05-14T01:09:45.348Z,7.70
2019-05-14T01:12:16.465Z,7.60
2019-05-14T01:14:47.582Z,7.60
2019-05-14T01:17:18.738Z,7.60
2019-05-14T01:19:51.356Z,7.70
2019-05-14T01:22:23.784Z,7.60
2019-05-14T01:24:54.911Z,7.50
2019-05-14T01:27:26.085Z,7.40
2019-05-14T01:29:57.231Z,7.30
2019-05-14T01:32:28.373Z,7.20
2019-05-14T01:35:01.419Z,7.10
2019-05-14T01:37:32.353Z,7.00
2019-05-14T01:40:03.572Z,7.00
2019-05-14T01:42:34.707Z,7.00
2019-05-14T01:45:06.011Z,6.90
2019-05-14T01:47:37.150Z,6.90
2019-05-14T01:50:08.302Z,6.90
2019-05-14T01:52:41.503Z,6.80
2019-05-14T01:55:12.361Z,6.70
2019-05-14T01:57:43.494Z,6.70
2019-05-14T02:00:14.702Z,6.60
2019-05-14T02:02:45.966Z,6.60
2019-05-14T02:05:17.145Z,6.50
2019-05-14T02:07:48.282Z,6.40
2019-05-14T02:10:19.403Z,6.30
2019-05-14T02:12:51.499Z,6.20
2019-05-14T02:15:36.364Z,6.10
2019-05-14T02:17:56.745Z,6.00
2019-05-14T02:20:28.979Z,6.10
2019-05-14T02:23:03.417Z,6.00
2019-05-14T02:25:34.617Z,6.00
2019-05-14T02:28:05.773Z,5.90
2019-05-14T02:30:48.358Z,6.00
2019-05-14T02:33:09.740Z,6.10
2019-05-14T02:35:40.921Z,6.20
2019-05-14T02:38:13.045Z,6.20
2019-05-14T02:40:44.157Z,6.30
2019-05-14T02:43:15.298Z,6.20
2019-05-14T02:46:04.603Z,6.30
2019-05-14T02:48:20.115Z,6.10
2019-05-14T02:50:52.559Z,6.10
2019-05-14T02:53:23.677Z,6.30
2019-05-14T02:55:54.785Z,6.20
2019-05-14T02:58:29.861Z,6.30
2019-05-14T03:01:00.617Z,6.20
2019-05-14T03:03:32.086Z,6.10
2019-05-14T03:06:03.201Z,5.90
2019-05-14T03:08:34.385Z,5.90
2019-05-14T03:11:05.497Z,5.80
2019-05-14T03:13:39.751Z,5.80
2019-05-14T03:16:22.342Z,5.80
2019-05-14T03:18:42.341Z,5.70
2019-05-14T03:21:13.470Z,5.80
2019-05-14T03:23:44.600Z,5.80
2019-05-14T03:26:15.717Z,5.80
2019-05-14T03:28:49.760Z,5.80
2019-05-14T03:31:22.576Z,5.70
2019-05-14T03:33:53.418Z,5.70
2019-05-14T03:36:26.906Z,5.70
2019-05-14T03:38:59.353Z,5.70
2019-05-14T03:41:30.739Z,5.70
2019-05-14T03:44:02.039Z,5.70
2019-05-14T03:46:45.585Z,5.60
2019-05-14T03:49:09.101Z,5.60
2019-05-14T03:51:39.351Z,5.50
2019-05-14T03:54:12.671Z,5.60
2019-05-14T03:56:43.624Z,5.50
2019-05-14T03:59:14.811Z,5.50
2019-05-14T04:01:45.944Z,5.60
2019-05-14T04:04:19.465Z,5.60
2019-05-14T04:06:50.051Z,5.70
2019-05-14T04:09:21.178Z,5.80
2019-05-14T04:11:53.073Z,5.90
2019-05-14T04:14:24.495Z,6.00
2019-05-14T04:17:05.325Z,6.00
2019-05-14T04:19:29.573Z,6.00
2019-05-14T04:22:02.707Z,6.00
2019-05-14T04:24:36.816Z,6.30
2019-05-14T04:27:12.194Z,6.20
2019-05-14T04:29:41.198Z,6.40
2019-05-14T04:32:12.416Z,6.40
2019-05-14T04:34:43.507Z,6.40
2019-05-14T04:37:14.607Z,6.40
2019-05-14T04:39:45.721Z,6.50
2019-05-14T04:42:20.015Z,6.60
2019-05-14T04:44:50.670Z,6.60
2019-05-14T04:47:31.254Z,6.70
2019-05-14T04:49:54.924Z,6.80
2019-05-14T04:52:29.072Z,6.80
2019-05-14T04:54:59.628Z,6.70
2019-05-14T04:57:32.033Z,6.70
2019-05-14T05:00:03.176Z,6.80
2019-05-14T05:02:35.459Z,6.70
2019-05-14T05:05:09.118Z,6.90
2019-05-14T05:07:40.798Z,7.00
2019-05-14T05:10:11.984Z,7.20
2019-05-14T05:12:43.112Z,7.30
2019-05-14T05:15:14.243Z,7.40
2019-05-14T05:17:51.858Z,7.60
2019-05-14T05:20:19.369Z,7.70
2019-05-14T05:22:50.752Z,8.10
2019-05-14T05:25:21.897Z,9.50
2019-05-14T05:27:56.243Z,11.80
2019-05-14T05:30:25.935Z,14.30
2019-05-14T05:32:59.526Z,16.00
2019-05-14T05:35:29.872Z,17.90
2019-05-14T05:38:01.017Z,18.90
2019-05-14T05:40:32.135Z,19.80
2019-05-14T05:43:03.282Z,20.80
2019-05-14T05:45:34.415Z,21.30
2019-05-14T05:48:08.062Z,21.80
2019-05-14T05:50:38.980Z,22.80
2019-05-14T05:53:10.115Z,23.60
2019-05-14T05:55:41.246Z,23.30
2019-05-14T05:58:12.407Z,23.00
2019-05-14T06:00:43.526Z,22.80
2019-05-14T06:03:14.679Z,23.10
2019-05-14T06:05:45.792Z,23.20
2019-05-14T06:08:18.851Z,23.50
2019-05-14T06:10:49.771Z,23.60
2019-05-14T06:13:20.903Z,23.40
2019-05-14T06:15:52.600Z,23.30
2019-05-14T06:18:23.731Z,23.10
2019-05-14T06:20:54.854Z,21.80
2019-05-14T06:23:33.596Z,22.30
2019-05-14T06:26:04.717Z,22.70
2019-05-14T06:28:40.308Z,22.70
2019-05-14T06:31:10.367Z,22.80
2019-05-14T06:33:41.592Z,23.50
2019-05-14T06:36:14.662Z,23.50
2019-05-14T06:38:45.540Z,24.10
2019-05-14T06:41:19.148Z,25.10
2019-05-14T06:43:49.556Z,25.50
2019-05-14T06:46:20.686Z,25.80
2019-05-14T06:48:51.817Z,25.80
2019-05-14T06:51:22.962Z,25.40
2019-05-14T06:53:54.085Z,25.50
2019-05-14T06:56:25.213Z,25.20
2019-05-14T06:58:58.437Z,25.00
2019-05-14T07:01:29.298Z,24.80
2019-05-14T07:04:00.509Z,24.40
2019-05-14T07:06:31.722Z,24.50
2019-05-14T07:09:04.784Z,24.80
2019-05-14T07:11:38.627Z,25.00
2019-05-14T07:14:11.483Z,25.60
2019-05-14T07:16:41.576Z,25.60
2019-05-14T07:19:15.718Z,25.00
2019-05-14T07:21:45.552Z,24.40
2019-05-14T07:24:19.286Z,23.50
2019-05-14T07:26:49.661Z,23.10
2019-05-14T07:29:20.738Z,22.80
2019-05-14T07:31:51.849Z,23.10
2019-05-14T07:34:23.004Z,24.00
2019-05-14T07:36:54.201Z,24.60
2019-05-14T07:39:25.484Z,24.90
2019-05-14T07:41:58.985Z,24.40
2019-05-14T07:44:29.846Z,23.30
2019-05-14T07:47:01.030Z,23.10
2019-05-14T07:49:33.140Z,22.90
2019-05-14T07:52:04.273Z,23.00
2019-05-14T07:54:38.748Z,22.90
2019-05-14T07:57:09.449Z,23.00
2019-05-14T07:59:40.697Z,23.70
2019-05-14T08:02:12.929Z,23.40
2019-05-14T08:04:44.237Z,23.30
2019-05-14T08:07:15.373Z,23.20
2019-05-14T08:09:48.243Z,23.60
2019-05-14T08:12:19.448Z,24.40
2019-05-14T08:15:13.054Z,24.00
2019-05-14T08:17:23.539Z,24.10
2019-05-14T08:19:54.657Z,24.80
2019-05-14T08:22:25.789Z,24.90
2019-05-14T08:24:58.079Z,24.20
2019-05-14T08:27:31.048Z,24.40
2019-05-14T08:30:02.248Z,24.60
2019-05-14T08:32:33.460Z,24.40
2019-05-14T08:35:05.156Z,24.30
2019-05-14T08:37:38.493Z,24.30
2019-05-14T08:40:09.675Z,25.10
2019-05-14T08:42:42.103Z,25.00
2019-05-14T08:45:14.038Z,24.70
2019-05-14T08:47:45.528Z,24.10
2019-05-14T08:50:18.562Z,23.40
2019-05-14T08:52:49.482Z,23.50
2019-05-14T08:55:20.598Z,22.80
2019-05-14T08:57:51.867Z,22.40
2019-05-14T09:00:23.039Z,21.80
2019-05-14T09:02:54.176Z,21.80
2019-05-14T09:05:25.313Z,22.40
2019-05-14T09:07:58.159Z,23.00
2019-05-14T09:10:29.597Z,23.30
2019-05-14T09:13:02.805Z,22.80
2019-05-14T09:15:33.661Z,22.70
2019-05-14T09:18:04.897Z,21.80
2019-05-14T09:20:38.076Z,21.60
2019-05-14T09:23:09.240Z,21.60
2019-05-14T09:25:47.542Z,21.70
2019-05-14T09:28:14.788Z,20.50
2019-05-14T09:30:48.570Z,19.50
2019-05-14T09:33:21.512Z,19.60
2019-05-14T09:36:08.017Z,20.40
2019-05-14T09:38:24.872Z,20.60
2019-05-14T09:41:08.252Z,20.40
2019-05-14T09:43:29.042Z,20.90
2019-05-14T09:46:00.174Z,20.90
2019-05-14T09:48:31.380Z,21.00
2019-05-14T09:51:02.565Z,20.70
2019-05-14T09:53:33.710Z,21.50
2019-05-14T09:56:04.831Z,21.30
2019-05-14T09:58:38.501Z,20.60
2019-05-14T10:01:08.879Z,21.00
2019-05-14T10:03:40.090Z,21.10
2019-05-14T10:06:11.199Z,21.10
2019-05-14T10:08:42.426Z,21.30
2019-05-14T10:11:13.568Z,20.80
2019-05-14T10:13:44.684Z,21.00
2019-05-14T10:16:18.618Z,21.30
2019-05-14T10:18:52.392Z,20.80
2019-05-14T10:21:21.753Z,20.60
2019-05-14T10:23:52.959Z,20.40
2019-05-14T10:26:24.144Z,19.50
2019-05-14T10:28:55.317Z,18.40
2019-05-14T10:31:28.389Z,18.00
2019-05-14T10:33:59.305Z,17.70
2019-05-14T10:36:31.723Z,17.50
2019-05-14T10:39:03.131Z,17.50
2019-05-14T10:41:34.326Z,17.90
2019-05-14T10:44:05.539Z,18.00
2019-05-14T10:46:38.446Z,17.70
2019-05-14T10:49:17.446Z,17.30
2019-05-14T10:51:42.709Z,17.10
2019-05-14T10:54:22.471Z,16.70
2019-05-14T10:56:49.299Z,16.50
2019-05-14T10:59:19.541Z,16.60
2019-05-14T11:01:50.716Z,16.60
2019-05-14T11:04:21.856Z,16.50
2019-05-14T11:06:53.001Z,16.50
2019-05-14T11:09:24.163Z,16.60
2019-05-14T11:11:55.307Z,16.60
2019-05-14T11:14:31.344Z,16.80
2019-05-14T11:16:59.391Z,16.80
2019-05-14T11:19:30.499Z,16.80
2019-05-14T11:22:01.624Z,16.80
2019-05-14T11:24:32.796Z,17.00
2019-05-14T11:27:03.979Z,17.10
2019-05-14T11:29:35.138Z,16.60
2019-05-14T11:32:09.372Z,16.10
2019-05-14T11:34:39.408Z,16.10
2019-05-14T11:37:11.645Z,16.10
2019-05-14T11:39:43.148Z,16.40
2019-05-14T11:42:14.564Z,16.70
2019-05-14T11:44:45.935Z,17.10
2019-05-14T11:47:18.139Z,17.20
2019-05-14T11:49:49.504Z,16.80
2019-05-14T11:52:20.720Z,16.40
2019-05-14T11:54:52.273Z,16.40
2019-05-14T11:57:23.843Z,16.70
2019-05-14T11:59:58.145Z,17.00
2019-05-14T12:02:29.171Z,17.50
2019-05-14T12:05:00.292Z,17.50
2019-05-14T12:07:31.402Z,17.30
2019-05-14T12:10:02.573Z,17.10
2019-05-14T12:12:33.750Z,16.60
2019-05-14T12:15:06.075Z,16.40
2019-05-14T12:17:39.384Z,16.50
2019-05-14T12:20:10.681Z,16.90
2019-05-14T12:22:41.971Z,17.00
2019-05-14T12:25:13.455Z,16.70
2019-05-14T12:27:44.586Z,16.80
2019-05-14T12:30:16.191Z,17.00
2019-05-14T12:32:50.142Z,17.10
2019-05-14T12:35:21.697Z,17.10
2019-05-14T12:37:52.887Z,16.90
2019-05-14T12:40:24.110Z,17.20
2019-05-14T12:42:55.512Z,17.20
2019-05-14T12:45:29.653Z,16.80
2019-05-14T12:47:59.604Z,16.50
2019-05-14T12:50:30.812Z,16.60
2019-05-14T12:53:02.636Z,16.90
2019-05-14T12:55:33.899Z,17.40
2019-05-14T12:58:05.192Z,17.90
2019-05-14T13:00:38.914Z,17.90
2019-05-14T13:03:09.396Z,17.90
2019-05-14T13:05:40.569Z,18.10
2019-05-14T13:08:11.744Z,18.30
2019-05-14T13:10:42.969Z,18.40
2019-05-14T13:13:14.234Z,18.00
2019-05-14T13:15:45.437Z,17.60
2019-05-14T13:18:19.172Z,17.60
2019-05-14T13:20:49.424Z,17.60
2019-05-14T13:23:20.589Z,17.80
2019-05-14T13:25:52.803Z,17.80
2019-05-14T13:28:24.003Z,18.10
2019-05-14T13:30:55.140Z,18.10
2019-05-14T13:33:28.487Z,18.30
2019-05-14T13:35:59.614Z,18.70
2019-05-14T13:38:30.733Z,18.60
2019-05-14T13:41:02.177Z,18.30
2019-05-14T13:43:33.308Z,17.90
2019-05-14T13:46:04.473Z,17.20
2019-05-14T13:48:39.600Z,17.00
2019-05-14T13:51:09.071Z,17.20
2019-05-14T13:53:40.482Z,17.60
2019-05-14T13:56:11.836Z,17.80
2019-05-14T13:58:43.099Z,18.00
2019-05-14T14:01:14.297Z,18.10
2019-05-14T14:03:52.480Z,17.90
2019-05-14T14:06:20.740Z,17.90
2019-05-14T14:08:51.293Z,17.80
2019-05-14T14:11:22.521Z,17.90
2019-05-14T14:13:53.733Z,17.90
2019-05-14T14:16:24.860Z,17.70
2019-05-14T14:18:56.017Z,17.40
2019-05-14T14:21:29.785Z,17.20
2019-05-14T14:23:59.996Z,17.20
2019-05-14T14:26:31.216Z,17.40
2019-05-14T14:29:03.621Z,17.60
2019-05-14T14:31:34.827Z,17.90
2019-05-14T14:34:08.905Z,17.60
2019-05-14T14:36:38.996Z,17.10
2019-05-14T14:39:10.111Z,16.70
2019-05-14T14:41:41.263Z,16.60
2019-05-14T14:44:12.443Z,16.70
2019-05-14T14:46:43.650Z,17.20
2019-05-14T14:49:14.789Z,17.60
2019-05-14T14:51:45.991Z,17.80
2019-05-14T14:54:17.122Z,17.70
2019-05-14T14:56:48.782Z,17.60
2019-05-14T14:59:20.242Z,17.60
2019-05-14T15:01:51.798Z,17.50
2019-05-14T15:04:23.274Z,17.60
2019-05-14T15:06:54.541Z,17.70
2019-05-14T15:09:25.697Z,18.10
2019-05-14T15:11:59.651Z,18.00
2019-05-14T15:14:30.024Z,17.80
2019-05-14T15:17:01.774Z,17.60
2019-05-14T15:19:32.958Z,17.70
2019-05-14T15:22:04.115Z,17.70
2019-05-14T15:24:35.282Z,17.60
2019-05-14T15:27:14.667Z,17.40
2019-05-14T15:29:42.813Z,17.40
2019-05-14T15:32:12.222Z,17.40
2019-05-14T15:34:43.941Z,17.80
2019-05-14T15:37:15.247Z,17.90
2019-05-14T15:39:48.887Z,17.80
2019-05-14T15:42:19.474Z,17.40
2019-05-14T15:44:55.770Z,17.20
2019-05-14T15:47:23.708Z,16.90
2019-05-14T15:49:54.902Z,16.90
2019-05-14T15:52:28.685Z,17.00
2019-05-14T15:54:58.972Z,17.40
2019-05-14T15:57:30.155Z,17.70
2019-05-14T16:00:01.336Z,17.70
2019-05-14T16:02:33.203Z,17.60
2019-05-14T16:05:09.727Z,17.40
2019-05-14T16:07:40.398Z,17.30
2019-05-14T16:10:11.647Z,17.00
2019-05-14T16:12:42.783Z,16.90
2019-05-14T16:15:14.056Z,16.90
2019-05-14T16:17:49.192Z,17.00
2019-05-14T16:20:19.023Z,17.30
2019-05-14T16:22:51.291Z,17.40
2019-05-14T16:25:22.486Z,17.40
2019-05-14T16:27:53.609Z,17.20
2019-05-14T16:30:24.859Z,16.80
2019-05-14T16:32:55.960Z,16.50
2019-05-14T16:35:28.549Z,16.20
2019-05-14T16:38:00.163Z,16.10
2019-05-14T16:40:31.341Z,16.00
2019-05-14T16:43:02.551Z,16.10
2019-05-14T16:45:33.922Z,16.10
2019-05-14T16:48:05.107Z,16.20
2019-05-14T16:50:36.429Z,16.40
2019-05-14T16:53:11.571Z,16.60
2019-05-14T16:55:40.536Z,16.50
2019-05-14T16:58:11.692Z,16.40
2019-05-14T17:00:42.801Z,16.40
2019-05-14T17:03:13.936Z,16.20
2019-05-14T17:05:45.285Z,16.00
2019-05-14T17:08:18.927Z,16.00
2019-05-14T17:10:49.239Z,16.00
2019-05-14T17:13:20.384Z,16.00
2019-05-14T17:15:51.497Z,16.00
2019-05-14T17:18:22.668Z,15.90
2019-05-14T17:20:53.786Z,15.80
2019-05-14T17:23:24.972Z,15.70
2019-05-14T17:25:58.000Z,15.70
2019-05-14T17:28:29.189Z,15.60
2019-05-14T17:31:00.390Z,15.50
2019-05-14T17:33:31.541Z,15.40
2019-05-14T17:36:02.735Z,15.30
2019-05-14T17:38:33.868Z,15.30
2019-05-14T17:41:04.989Z,15.20
2019-05-14T17:43:36.163Z,15.10
2019-05-14T17:46:09.707Z,14.90
2019-05-14T17:48:41.625Z,14.90
2019-05-14T17:51:12.810Z,14.90
2019-05-14T17:53:43.946Z,14.80
2019-05-14T17:56:15.136Z,14.80
2019-05-14T17:58:46.239Z,14.90
2019-05-14T18:01:18.242Z,14.80
2019-05-14T18:03:49.607Z,14.70
2019-05-14T18:06:21.117Z,14.60
2019-05-14T18:08:52.592Z,14.50
2019-05-14T18:11:24.900Z,14.30
2019-05-14T18:13:58.365Z,14.30
2019-05-14T18:16:29.333Z,14.20
2019-05-14T18:19:00.535Z,14.10
2019-05-14T18:21:31.750Z,14.00
2019-05-14T18:24:02.845Z,14.00
2019-05-14T18:26:34.053Z,13.90
2019-05-14T18:29:05.172Z,13.90
2019-05-14T18:31:43.156Z,13.80
2019-05-14T18:34:09.190Z,13.70
2019-05-14T18:36:40.327Z,13.70
2019-05-14T18:39:11.442Z,13.60
2019-05-14T18:41:42.595Z,13.50
2019-05-14T18:44:13.805Z,13.50
2019-05-14T18:46:44.964Z,13.40
2019-05-14T18:49:16.095Z,13.30
2019-05-14T18:51:49.897Z,13.20
2019-05-14T18:54:21.009Z,13.10
2019-05-14T18:56:52.136Z,13.00
2019-05-14T18:59:24.673Z,12.90
2019-05-14T19:01:59.443Z,12.80
2019-05-14T19:04:30.617Z,12.70
2019-05-14T19:07:02.075Z,12.70
2019-05-14T19:09:34.270Z,12.60
2019-05-14T19:12:05.410Z,12.50
2019-05-14T19:14:38.799Z,12.30
2019-05-14T19:17:09.367Z,12.00
2019-05-14T19:19:40.474Z,11.90
2019-05-14T19:22:11.614Z,11.90
2019-05-14T19:24:42.732Z,11.70
2019-05-14T19:27:13.886Z,11.50
2019-05-14T19:29:44.987Z,11.50
2019-05-14T19:32:16.117Z,11.30
2019-05-14T19:34:48.684Z,11.00
2019-05-14T19:37:21.029Z,10.80
2019-05-14T19:39:52.158Z,10.60
2019-05-14T19:42:23.294Z,10.50
2019-05-14T19:44:54.438Z,10.30
2019-05-14T19:47:25.565Z,10.20
2019-05-14T19:49:58.165Z,10.20
2019-05-14T19:52:30.464Z,10.00
2019-05-14T19:55:01.683Z,9.90
2019-05-14T19:57:32.844Z,9.80
2019-05-14T20:00:04.060Z,9.80
2019-05-14T20:02:36.599Z,9.90
2019-05-14T20:05:09.117Z,9.80
2019-05-14T20:07:40.577Z,9.80
2019-05-14T20:10:11.677Z,9.70
2019-05-14T20:12:42.799Z,9.60
2019-05-14T20:15:13.911Z,9.40
2019-05-14T20:17:45.037Z,9.30
2019-05-14T20:20:16.148Z,9.40
2019-05-14T20:22:49.838Z,9.30
2019-05-14T20:25:20.252Z,9.20
2019-05-14T20:27:51.424Z,9.00
2019-05-14T20:30:22.579Z,8.90
2019-05-14T20:32:53.957Z,8.90
2019-05-14T20:35:31.624Z,8.80
2019-05-14T20:37:58.670Z,8.80
2019-05-14T20:40:29.811Z,8.70
2019-05-14T20:43:01.009Z,8.60
2019-05-14T20:45:32.216Z,8.60
2019-05-14T20:48:03.410Z,8.70
2019-05-14T20:50:34.620Z,8.60
2019-05-14T20:53:05.764Z,8.60
2019-05-14T20:55:38.830Z,8.60
2019-05-14T20:58:09.862Z,8.50
2019-05-14T21:00:41.665Z,8.40
2019-05-14T21:03:13.868Z,8.40
2019-05-14T21:05:45.198Z,8.30
2019-05-14T21:08:18.696Z,8.20
2019-05-14T21:10:49.572Z,8.20
2019-05-14T21:13:40.126Z,8.20
2019-05-14T21:16:11.297Z,8.10
2019-05-14T21:18:42.469Z,8.10
2019-05-14T21:21:13.807Z,8.00
2019-05-14T21:23:44.925Z,8.00
2019-05-14T21:26:16.160Z,8.00
2019-05-14T21:28:48.710Z,7.90
2019-05-14T21:31:20.016Z,7.90
2019-05-14T21:33:51.267Z,7.80
2019-05-14T21:36:22.485Z,7.70
2019-05-14T21:38:53.605Z,7.60
2019-05-14T21:41:24.801Z,7.50
2019-05-14T21:43:55.962Z,7.50
2019-05-14T21:46:28.917Z,7.60
2019-05-14T21:48:59.963Z,7.60
2019-05-14T21:51:31.059Z,7.60
2019-05-14T21:54:02.417Z,7.60
2019-05-14T21:56:33.593Z,7.50
2019-05-14T21:59:04.845Z,7.50
2019-05-14T22:01:36.145Z,7.50
2019-05-14T22:04:11.162Z,7.50
2019-05-14T22:06:41.417Z,7.50
2019-05-14T22:09:12.667Z,7.40
2019-05-14T22:11:43.808Z,7.40
2019-05-14T22:14:14.998Z,7.30
2019-05-14T22:16:46.173Z,7.30
2019-05-14T22:19:19.017Z,7.20
2019-05-14T22:21:50.275Z,7.20
2019-05-14T22:24:21.414Z,7.10
2019-05-14T22:26:52.505Z,7.00
2019-05-14T22:29:23.756Z,6.90
2019-05-14T22:31:54.897Z,6.80
2019-05-14T22:34:28.064Z,6.80
2019-05-14T22:36:59.027Z,6.70
2019-05-14T22:39:30.435Z,6.80
2019-05-14T22:42:01.550Z,6.70
2019-05-14T22:44:33.029Z,6.70
2019-05-14T22:47:04.190Z,6.70
2019-05-14T22:49:35.480Z,6.70
2019-05-14T22:52:08.361Z,6.60
2019-05-14T22:54:39.648Z,6.60
2019-05-14T22:57:10.780Z,6.50
2019-05-14T22:59:43.010Z,6.50
2019-05-14T23:02:14.149Z,6.40
2019-05-14T23:04:45.293Z,6.40
2019-05-14T23:07:18.855Z,6.40
2019-05-14T23:09:49.545Z,6.30
2019-05-14T23:12:20.664Z,6.30
2019-05-14T23:14:51.832Z,6.30
2019-05-14T23:17:22.953Z,6.40
2019-05-14T23:19:54.153Z,6.50
2019-05-14T23:22:25.280Z,6.50
2019-05-14T23:24:59.045Z,6.60
2019-05-14T23:27:29.519Z,6.50
2019-05-14T23:30:00.622Z,6.40
2019-05-14T23:32:31.809Z,6.40
2019-05-14T23:35:02.979Z,6.40
2019-05-14T23:37:34.134Z,6.40
2019-05-14T23:40:05.571Z,6.40
2019-05-14T23:42:39.071Z,6.40
2019-05-14T23:45:09.567Z,6.30
2019-05-14T23:47:40.739Z,6.30
2019-05-14T23:50:11.885Z,6.40
2019-05-14T23:52:43.043Z,6.40
2019-05-14T23:55:14.225Z,6.40
2019-05-14T23:57:48.143Z,6.50
